Time;durP1;ratioP1;P1;durP2;ratioP2;P2;SDS_P1;SDS_P2;PMS_P1;PMS_P2;Temp;Humidity;BMP_temperature;BMP_pressure;BME280_temperature;BME280_humidity;BME280_pressure;Samples;Min_cycle;Max_cycle;Signal;HPM_P1;HPM_P2
2022/03/02 00:01:33;;;;;;;4.50;4.00;;;16.30;47.60;17.10;101802.00;;;;5030117;28;20656;-44
2022/03/02 00:03:59;;;;;;;4.93;4.40;;;16.20;47.60;17.00;101803.00;;;;5027615;28;20233;-44
2022/03/02 00:06:25;;;;;;;4.67;4.17;;;16.10;47.70;17.00;101811.00;;;;5026551;28;20916;-43
2022/03/02 00:08:51;;;;;;;5.30;4.57;;;16.10;47.70;17.00;101807.00;;;;5026298;28;20171;-44
2022/03/02 00:11:16;;;;;;;4.97;4.47;;;16.10;47.90;17.00;101793.00;;;;5028171;28;20668;-45
2022/03/02 00:13:42;;;;;;;4.33;3.93;;;16.10;48.00;17.00;101800.00;;;;5027377;28;20194;-44
2022/03/02 00:16:08;;;;;;;4.70;4.30;;;16.10;47.90;17.00;101803.00;;;;5026543;28;20229;-44
2022/03/02 00:18:34;;;;;;;4.93;4.43;;;16.10;47.90;17.00;101799.00;;;;5026289;28;20182;-44
2022/03/02 00:21:00;;;;;;;4.87;4.40;;;16.10;47.90;17.00;101795.00;;;;5026235;28;20179;-44
2022/03/02 00:23:26;;;;;;;4.90;4.40;;;16.00;47.90;17.00;101796.00;;;;5027533;28;20748;-44
2022/03/02 00:25:52;;;;;;;4.60;4.20;;;16.00;47.80;17.00;101790.00;;;;5037404;28;20174;-45
2022/03/02 00:28:18;;;;;;;4.53;4.13;;;16.10;48.00;17.00;101802.00;;;;5035875;28;20230;-45
2022/03/02 00:30:44;;;;;;;4.33;3.93;;;16.10;48.00;17.00;101798.00;;;;5026866;28;20190;-45
2022/03/02 00:33:10;;;;;;;4.83;4.00;;;16.00;47.80;17.00;101790.00;;;;5025889;28;20548;-46
2022/03/02 00:35:35;;;;;;;4.60;4.20;;;16.00;47.80;17.00;101792.00;;;;5025348;28;20229;-43
2022/03/02 00:38:03;;;;;;;4.23;3.83;;;16.10;48.00;17.00;101793.00;;;;5025997;28;20171;-44
2022/03/02 00:40:29;;;;;;;4.17;3.77;;;16.00;47.90;17.00;101794.00;;;;5026002;28;20670;-45
2022/03/02 00:42:55;;;;;;;4.37;3.97;;;16.00;47.80;17.00;101794.00;;;;5025629;28;20183;-45
2022/03/02 00:45:21;;;;;;;4.60;4.20;;;16.00;47.90;17.00;101789.00;;;;5024615;28;20308;-44
2022/03/02 00:47:47;;;;;;;4.60;4.20;;;16.00;47.90;17.00;101788.00;;;;5025473;28;20233;-45
2022/03/02 00:50:14;;;;;;;4.37;3.97;;;15.90;47.90;16.70;101780.00;;;;5026295;28;20644;-48
2022/03/02 00:52:40;;;;;;;4.60;4.20;;;16.00;48.00;16.90;101784.00;;;;5030051;28;20320;-45
2022/03/02 00:55:06;;;;;;;4.20;3.80;;;15.90;47.90;16.90;101779.00;;;;5030207;28;20175;-44
2022/03/02 00:57:31;;;;;;;4.30;3.90;;;15.90;47.90;16.90;101772.00;;;;5029335;28;20190;-44
2022/03/02 00:59:57;;;;;;;4.57;4.17;;;15.90;48.00;16.90;101776.00;;;;5029780;28;20218;-45
2022/03/02 01:02:23;;;;;;;4.30;3.90;;;15.90;48.00;16.90;101766.00;;;;5029617;28;20588;-45
2022/03/02 01:04:49;;;;;;;4.20;3.80;;;15.90;48.00;16.90;101766.00;;;;5029251;28;20203;-45
2022/03/02 01:07:15;;;;;;;4.30;3.90;;;15.90;48.10;16.90;101768.00;;;;5029194;28;20853;-45
2022/03/02 01:09:40;;;;;;;4.27;3.87;;;15.80;48.00;16.80;101764.00;;;;5029599;28;20182;-45
2022/03/02 01:12:06;;;;;;;4.60;4.20;;;15.80;48.00;16.80;101757.00;;;;5029175;28;20262;-44
2022/03/02 01:14:32;;;;;;;4.10;3.70;;;15.80;48.00;16.80;101758.00;;;;5029314;28;20195;-45
2022/03/02 01:16:57;;;;;;;4.60;4.20;;;15.80;48.10;16.80;101765.00;;;;5028967;28;20570;-46
2022/03/02 01:19:23;;;;;;;4.07;3.77;;;15.80;48.10;16.80;101753.00;;;;5029022;28;20234;-45
2022/03/02 01:21:49;;;;;;;4.57;4.17;;;15.80;48.10;16.80;101743.00;;;;5028992;28;20167;-45
2022/03/02 01:24:14;;;;;;;4.07;3.77;;;15.80;48.20;16.70;101732.00;;;;5029061;28;20194;-44
2022/03/02 01:26:40;;;;;;;4.20;3.53;;;15.70;48.00;16.70;101735.00;;;;5028873;28;20590;-44
2022/03/02 01:29:06;;;;;;;4.00;3.70;;;15.70;48.10;16.70;101732.00;;;;5028740;28;20586;-46
2022/03/02 01:31:32;;;;;;;4.40;4.00;;;15.70;48.10;16.70;101733.00;;;;5028762;28;20242;-44
2022/03/02 01:33:57;;;;;;;4.30;3.90;;;15.70;48.10;16.70;101730.00;;;;5029233;28;20193;-44
2022/03/02 01:36:23;;;;;;;4.30;3.90;;;15.70;48.20;16.70;101726.00;;;;5028626;28;20179;-43
2022/03/02 01:38:49;;;;;;;4.23;3.83;;;15.70;48.20;16.70;101719.00;;;;5028621;28;20178;-44
2022/03/02 01:41:16;;;;;;;4.20;3.80;;;15.60;48.10;16.70;101713.00;;;;5028903;28;20171;-44
2022/03/02 01:43:46;;;;;;;4.40;4.00;;;15.60;48.70;16.70;101721.00;;;;5029618;28;20680;-45
2022/03/02 01:46:12;;;;;;;4.33;3.93;;;15.60;48.00;16.70;101709.00;;;;5029448;28;20266;-44
2022/03/02 01:48:39;;;;;;;4.00;3.70;;;15.60;48.00;16.60;101721.00;;;;5028229;28;20984;-45
2022/03/02 01:51:05;;;;;;;4.00;3.70;;;15.60;48.00;16.60;101717.00;;;;5028417;28;20159;-44
2022/03/02 01:53:31;;;;;;;4.20;3.90;;;15.60;48.00;16.60;101722.00;;;;5028814;28;20194;-45
2022/03/02 01:55:57;;;;;;;4.07;3.50;;;15.60;48.00;16.60;101719.00;;;;5028460;28;20229;-44
2022/03/02 01:58:23;;;;;;;5.27;3.57;;;15.60;48.50;16.60;101719.00;;;;5028199;28;20191;-45
2022/03/02 02:00:49;;;;;;;4.17;3.77;;;15.50;48.40;16.60;101724.00;;;;5027719;28;20194;-45
2022/03/02 02:03:15;;;;;;;4.17;3.87;;;15.60;48.50;16.60;101726.00;;;;5028272;28;20261;-44
2022/03/02 02:16:44;;;;;;;3.67;3.37;;;15.50;48.40;16.50;101718.00;;;;5024758;28;20859;-44
2022/03/02 02:19:10;;;;;;;4.00;3.60;;;15.50;48.50;16.50;101716.00;;;;5027783;28;20187;-44
2022/03/02 02:21:36;;;;;;;3.90;3.60;;;15.50;48.40;16.50;101710.00;;;;5027704;28;20198;-42
2022/03/02 02:24:01;;;;;;;3.90;3.60;;;15.40;48.30;16.50;101719.00;;;;5028219;28;20183;-46
2022/03/02 02:26:27;;;;;;;3.87;3.57;;;15.40;48.40;16.50;101717.00;;;;5027361;28;20175;-47
2022/03/02 02:28:53;;;;;;;3.77;3.47;;;15.40;48.40;16.50;101714.00;;;;5027743;28;20539;-44
2022/03/02 02:31:18;;;;;;;4.40;4.00;;;15.40;48.40;16.50;101706.00;;;;5026508;28;20163;-44
2022/03/02 02:37:25;;;;;;;4.47;3.80;;;15.40;48.40;16.50;101707.00;;;;5021937;28;20183;-44
2022/03/02 02:40:00;;;;;;;3.80;3.50;;;15.40;48.40;16.40;101702.00;;;;5040880;28;20266;-44
2022/03/02 02:42:25;;;;;;;3.77;3.47;;;15.40;48.40;16.40;101705.00;;;;5030238;28;20154;-45
2022/03/02 02:44:52;;;;;;;3.83;3.53;;;15.40;48.30;16.40;101698.00;;;;5027327;28;20170;-45
2022/03/02 02:47:17;;;;;;;3.90;3.60;;;15.30;48.20;16.40;101685.00;;;;5027137;28;20265;-44
2022/03/02 02:49:43;;;;;;;3.60;3.30;;;15.30;48.20;16.40;101686.00;;;;5027334;28;20660;-44
2022/03/02 02:52:09;;;;;;;3.73;3.43;;;15.30;48.10;16.40;101685.00;;;;5027186;28;20163;-43
2022/03/02 02:54:34;;;;;;;3.90;3.60;;;15.30;48.20;16.40;101682.00;;;;5027124;28;20195;-43
2022/03/02 02:57:00;;;;;;;3.87;3.57;;;15.30;48.20;16.40;101674.00;;;;5026632;28;20195;-44
2022/03/02 02:59:26;;;;;;;3.70;3.40;;;15.30;48.20;16.40;101681.00;;;;5025934;28;20203;-44
2022/03/02 03:01:52;;;;;;;3.70;3.40;;;15.30;48.20;16.30;101672.00;;;;5027238;28;20171;-45
2022/03/02 03:04:17;;;;;;;4.00;3.60;;;15.20;48.10;16.30;101669.00;;;;5027967;28;20194;-44
2022/03/02 03:06:43;;;;;;;4.00;3.60;;;15.20;48.00;16.30;101669.00;;;;5027038;28;20286;-45
2022/03/02 03:09:09;;;;;;;3.67;3.37;;;15.20;48.10;16.30;101664.00;;;;5027704;28;20636;-46
2022/03/02 03:11:39;;;;;;;4.20;3.80;;;15.20;48.20;16.30;101673.00;;;;5027758;28;20233;-44
2022/03/02 03:14:09;;;;;;;5.70;3.70;;;15.20;48.10;16.30;101664.00;;;;5026899;28;20191;-45
2022/03/02 03:16:34;;;;;;;3.90;3.60;;;15.10;48.20;16.30;101675.00;;;;5026952;28;20245;-44
2022/03/02 03:19:00;;;;;;;3.90;3.60;;;15.10;48.20;16.30;101667.00;;;;5026769;28;20206;-46
2022/03/02 03:21:26;;;;;;;3.67;3.37;;;15.10;48.20;16.20;101675.00;;;;5027367;28;20171;-43
2022/03/02 03:23:52;;;;;;;3.90;3.60;;;15.10;48.20;16.20;101665.00;;;;5025802;28;20194;-45
2022/03/02 03:26:17;;;;;;;3.83;3.53;;;15.00;48.10;16.20;101657.00;;;;5026895;28;20171;-44
2022/03/02 03:28:43;;;;;;;3.83;3.43;;;15.00;48.20;16.20;101667.00;;;;5026407;28;20667;-44
2022/03/02 03:31:09;;;;;;;3.90;3.53;;;15.00;48.20;16.20;101666.00;;;;5026814;28;20168;-43
2022/03/02 03:33:34;;;;;;;3.80;3.50;;;15.00;48.20;16.20;101663.00;;;;5026330;28;20201;-43
2022/03/02 03:36:00;;;;;;;3.90;3.60;;;15.00;48.30;16.20;101657.00;;;;5026887;28;20635;-45
2022/03/02 03:38:26;;;;;;;3.63;3.33;;;15.00;48.20;16.20;101664.00;;;;5026360;28;20229;-44
2022/03/02 03:40:51;;;;;;;3.70;3.40;;;15.00;48.30;16.10;101658.00;;;;5026025;28;20203;-46
2022/03/02 03:43:17;;;;;;;4.10;3.80;;;15.00;48.30;16.10;101657.00;;;;5026339;28;20191;-44
2022/03/02 03:45:43;;;;;;;3.53;3.23;;;15.00;48.30;16.10;101645.00;;;;5029012;28;20342;-45
2022/03/02 03:48:09;;;;;;;3.77;3.47;;;15.00;48.30;16.10;101653.00;;;;5025368;28;20175;-44
2022/03/02 03:50:35;;;;;;;3.93;3.63;;;14.90;48.20;16.10;101660.00;;;;5026386;28;20706;-45
2022/03/02 03:53:01;;;;;;;4.17;3.77;;;14.90;48.20;16.10;101657.00;;;;5025996;28;20202;-45
2022/03/02 03:55:26;;;;;;;3.87;3.57;;;14.90;48.20;16.10;101658.00;;;;5026481;28;20174;-44
2022/03/02 03:57:52;;;;;;;3.40;3.10;;;14.90;48.20;16.10;101659.00;;;;5026035;28;20668;-44
2022/03/02 04:00:18;;;;;;;3.93;3.63;;;14.90;48.20;16.10;101641.00;;;;5024534;28;20195;-45
2022/03/02 04:02:45;;;;;;;4.07;3.67;;;14.90;48.20;16.00;101644.00;;;;5025858;28;20639;-45
2022/03/02 04:05:10;;;;;;;3.50;3.20;;;14.80;48.10;16.00;101642.00;;;;5024763;28;20203;-44
2022/03/02 04:07:36;;;;;;;3.80;3.50;;;14.80;48.20;16.00;101647.00;;;;5025952;28;20676;-45
2022/03/02 04:10:07;;;;;;;3.90;3.60;;;14.80;48.30;16.00;101633.00;;;;5025730;28;20668;-44
2022/03/02 04:12:33;;;;;;;3.70;3.40;;;14.80;48.30;16.00;101650.00;;;;5025979;28;20846;-44
2022/03/02 04:14:58;;;;;;;3.63;3.33;;;14.80;48.20;16.00;101645.00;;;;5029250;28;20175;-45
2022/03/02 04:17:24;;;;;;;3.77;3.47;;;14.80;48.40;16.00;101629.00;;;;5025717;28;20175;-44
2022/03/02 04:19:50;;;;;;;3.50;3.20;;;14.80;48.50;15.90;101638.00;;;;5025561;28;20211;-44
2022/03/02 04:22:16;;;;;;;3.77;3.47;;;14.80;48.60;15.90;101637.00;;;;5025795;28;20167;-45
2022/03/02 04:24:42;;;;;;;3.80;3.50;;;14.80;48.50;15.90;101636.00;;;;5025325;28;20230;-45
2022/03/02 04:27:08;;;;;;;4.07;3.40;;;14.70;48.40;15.90;101641.00;;;;5025639;28;20772;-45
2022/03/02 04:29:33;;;;;;;4.37;3.70;;;14.80;48.80;15.90;101638.00;;;;5026005;28;20225;-44
2022/03/02 04:31:59;;;;;;;4.40;2.97;;;14.70;49.10;15.90;101632.00;;;;5025974;28;20783;-45
2022/03/02 04:34:25;;;;;;;4.60;3.57;;;14.70;48.80;15.80;101632.00;;;;5026106;28;20213;-47
2022/03/02 04:36:50;;;;;;;4.80;3.60;;;14.80;48.60;15.90;101636.00;;;;5025918;28;20171;-45
2022/03/02 04:39:16;;;;;;;5.13;3.40;;;14.70;48.60;15.90;101631.00;;;;5025755;28;20272;-45
2022/03/02 04:41:42;;;;;;;4.33;3.63;;;14.70;48.70;15.80;101620.00;;;;5030921;28;20167;-44
2022/03/02 04:44:08;;;;;;;4.33;3.30;;;14.70;48.70;15.80;101615.00;;;;5033360;28;20193;-44
2022/03/02 04:46:33;;;;;;;3.60;3.30;;;14.70;48.70;15.80;101615.00;;;;5027145;28;20217;-43
2022/03/02 04:49:10;;;;;;;4.57;3.30;;;14.70;48.70;15.80;101619.00;;;;5025935;28;20167;-45
2022/03/02 04:51:39;;;;;;;3.63;3.33;;;14.70;48.60;15.80;101618.00;;;;5025973;28;20579;-45
2022/03/02 04:54:05;;;;;;;3.60;3.30;;;14.70;48.70;15.80;101607.00;;;;5026171;28;20213;-43
2022/03/02 04:56:31;;;;;;;4.17;3.83;;;14.70;48.60;15.80;101606.00;;;;5023623;28;20194;-45
2022/03/02 04:58:57;;;;;;;3.93;3.40;;;14.60;48.60;15.80;101605.00;;;;5025341;28;20174;-46
2022/03/02 05:01:22;;;;;;;4.00;3.60;;;14.60;48.60;15.70;101603.00;;;;5024867;28;20375;-44
2022/03/02 05:03:48;;;;;;;4.30;3.30;;;14.60;48.50;15.70;101603.00;;;;5024438;28;20715;-44
2022/03/02 05:06:14;;;;;;;4.13;3.50;;;14.60;48.50;15.70;101612.00;;;;5025421;28;20167;-44
2022/03/02 05:08:40;;;;;;;3.60;3.30;;;14.50;48.40;15.70;101614.00;;;;5020609;28;20188;-45
2022/03/02 05:11:05;;;;;;;4.10;3.70;;;14.60;48.40;15.70;101604.00;;;;5016071;28;20200;-43
2022/03/02 05:13:31;;;;;;;3.73;3.37;;;14.60;48.30;15.70;101596.00;;;;5024974;28;20821;-44
2022/03/02 05:15:57;;;;;;;5.40;3.70;;;14.50;48.00;15.70;101601.00;;;;5025263;28;20190;-44
2022/03/02 05:18:22;;;;;;;4.20;3.80;;;14.50;47.90;15.60;101594.00;;;;5025256;28;20539;-45
2022/03/02 05:20:48;;;;;;;4.37;3.97;;;14.50;47.80;15.60;101599.00;;;;5024820;28;20285;-47
2022/03/02 05:23:14;;;;;;;4.53;3.80;;;14.50;47.70;15.60;101589.00;;;;5024688;28;20245;-44
2022/03/02 05:25:40;;;;;;;4.10;3.70;;;14.40;47.50;15.60;101594.00;;;;5025828;28;20216;-44
2022/03/02 05:28:05;;;;;;;4.30;3.90;;;14.40;47.30;15.50;101591.00;;;;5025031;28;20751;-44
2022/03/02 05:30:31;;;;;;;4.40;4.00;;;14.40;47.30;15.50;101583.00;;;;5025089;28;20760;-44
2022/03/02 05:32:57;;;;;;;4.40;4.00;;;14.40;47.30;15.50;101594.00;;;;5024699;28;20195;-44
2022/03/02 05:35:22;;;;;;;4.93;4.23;;;14.40;47.40;15.50;101588.00;;;;5025904;28;20201;-45
2022/03/02 05:37:48;;;;;;;4.53;4.13;;;14.40;47.50;15.50;101588.00;;;;5028301;28;20171;-44
2022/03/02 05:40:17;;;;;;;4.63;4.23;;;14.40;47.50;15.50;101593.00;;;;5028335;28;20198;-44
2022/03/02 05:42:42;;;;;;;4.50;4.10;;;14.40;47.50;15.50;101594.00;;;;5028001;28;20183;-43
2022/03/02 05:45:09;;;;;;;4.07;3.73;;;14.30;47.50;15.50;101597.00;;;;5027084;28;20174;-47
2022/03/02 05:47:36;;;;;;;4.50;4.10;;;14.30;47.50;15.50;101602.00;;;;5028154;28;20229;-43
2022/03/02 05:50:03;;;;;;;3.93;3.57;;;14.30;47.50;15.50;101597.00;;;;5028150;28;20280;-44
2022/03/02 05:52:29;;;;;;;4.13;3.73;;;14.30;47.60;15.50;101603.00;;;;5026960;28;20225;-44
2022/03/02 05:54:55;;;;;;;3.87;3.50;;;14.30;47.70;15.50;101600.00;;;;5028248;28;20694;-43
2022/03/02 05:57:20;;;;;;;4.10;3.70;;;14.30;47.50;15.50;101601.00;;;;5028612;28;20245;-45
2022/03/02 05:59:46;;;;;;;4.13;3.73;;;14.30;47.50;15.40;101600.00;;;;5027753;28;20210;-44
2022/03/02 06:02:12;;;;;;;4.40;3.83;;;14.30;47.60;15.40;101605.00;;;;5027695;28;20164;-45
2022/03/02 06:04:38;;;;;;;4.00;3.70;;;14.30;47.60;15.40;101604.00;;;;5027831;28;20194;-44
2022/03/02 06:07:03;;;;;;;3.90;3.60;;;14.30;47.60;15.40;101602.00;;;;5028552;28;20178;-43
2022/03/02 06:09:29;;;;;;;4.30;3.90;;;14.30;47.60;15.40;101603.00;;;;5027648;28;20167;-44
2022/03/02 06:11:55;;;;;;;3.70;3.40;;;14.30;47.60;15.40;101593.00;;;;5026220;28;20186;-44
2022/03/02 06:14:21;;;;;;;3.80;3.50;;;14.20;47.50;15.40;101600.00;;;;5028098;28;20198;-45
2022/03/02 06:16:48;;;;;;;3.80;3.50;;;14.20;47.60;15.40;101602.00;;;;5028924;28;20163;-45
2022/03/02 06:19:14;;;;;;;3.60;3.30;;;14.20;47.60;15.30;101598.00;;;;5029900;28;20713;-45
2022/03/02 06:21:43;;;;;;;3.77;3.47;;;14.20;47.60;15.30;101596.00;;;;5033353;28;20163;-45
2022/03/02 06:24:10;;;;;;;3.97;3.67;;;14.20;47.60;15.30;101597.00;;;;5027989;28;20725;-44
2022/03/02 06:26:35;;;;;;;3.70;3.40;;;14.20;47.50;15.30;101602.00;;;;5027263;28;20225;-43
2022/03/02 06:29:01;;;;;;;3.80;3.40;;;14.20;47.50;15.30;101608.00;;;;5028261;28;20218;-44
2022/03/02 06:31:27;;;;;;;3.40;3.10;;;14.20;47.50;15.30;101615.00;;;;5028230;28;20175;-45
2022/03/02 06:33:53;;;;;;;4.00;3.53;;;14.20;47.50;15.30;101609.00;;;;5027349;28;20187;-45
2022/03/02 06:36:20;;;;;;;3.80;3.50;;;14.20;47.50;15.30;101600.00;;;;5027356;28;20225;-44
2022/03/02 06:38:45;;;;;;;3.70;3.30;;;14.20;47.50;15.30;101613.00;;;;5027199;28;20254;-45
2022/03/02 06:41:30;;;;;;;3.90;3.60;;;14.10;47.50;15.30;101602.00;;;;5027536;28;20278;-43
2022/03/02 06:44:39;;;;;;;3.67;3.37;;;14.10;47.50;15.20;101607.00;;;;5027154;28;20199;-43
2022/03/02 06:47:13;;;;;;;3.73;3.40;;;14.10;47.60;15.20;101604.00;;;;5027720;28;20193;-44
2022/03/02 06:50:12;;;;;;;3.60;3.30;;;14.10;47.50;15.20;101602.00;;;;5027695;28;20179;-45
2022/03/02 06:52:43;;;;;;;3.70;3.40;;;14.10;47.50;15.20;101600.00;;;;5027435;28;20193;-45
2022/03/02 06:55:16;;;;;;;3.53;3.23;;;14.10;47.50;15.20;101605.00;;;;5027192;28;20187;-45
2022/03/02 06:58:04;;;;;;;3.97;3.63;;;14.10;47.40;15.20;101617.00;;;;5027791;28;20189;-45
2022/03/02 07:00:30;;;;;;;3.80;3.50;;;14.10;47.50;15.20;101618.00;;;;5025186;28;20218;-44
2022/03/02 07:03:03;;;;;;;3.63;3.33;;;14.10;47.50;15.20;101626.00;;;;5025166;28;20198;-44
2022/03/02 07:05:29;;;;;;;3.97;3.60;;;14.10;47.50;15.10;101628.00;;;;5028433;28;20796;-45
2022/03/02 07:07:55;;;;;;;3.70;3.40;;;14.00;47.40;15.20;101627.00;;;;5028501;28;20159;-45
2022/03/02 07:10:21;;;;;;;3.70;3.40;;;14.00;47.40;15.10;101621.00;;;;5029546;28;20179;-44
2022/03/02 07:12:46;;;;;;;3.40;3.10;;;14.00;48.00;15.10;101625.00;;;;5024759;28;20725;-43
2022/03/02 07:15:12;;;;;;;3.50;3.20;;;14.00;47.50;15.10;101624.00;;;;5027035;28;20258;-54
2022/03/02 07:17:39;;;;;;;3.57;3.27;;;14.00;47.50;15.10;101625.00;;;;5028773;28;20170;-46
2022/03/02 07:20:07;;;;;;;3.83;3.50;;;14.00;47.50;15.10;101636.00;;;;5026889;28;20198;-45
2022/03/02 07:22:45;;;;;;;3.50;3.20;;;14.00;47.50;15.10;101621.00;;;;5024816;28;20177;-45
2022/03/02 07:25:29;;;;;;;3.43;3.13;;;13.90;47.40;15.10;101621.00;;;;5011070;28;20178;-45
2022/03/02 07:27:58;;;;;;;3.00;2.80;;;13.90;47.40;15.10;101619.00;;;;5026170;28;20678;-45
2022/03/02 07:30:25;;;;;;;3.47;3.20;;;13.90;47.40;15.10;101628.00;;;;5026387;28;20209;-46
2022/03/02 07:32:54;;;;;;;3.43;3.13;;;13.90;47.40;15.10;101628.00;;;;5026481;28;20684;-45
2022/03/02 07:35:19;;;;;;;3.63;3.33;;;13.90;48.00;15.10;101633.00;;;;5025636;28;20261;-44
2022/03/02 07:37:45;;;;;;;3.47;3.17;;;13.90;47.40;15.00;101629.00;;;;5026207;28;20174;-44
2022/03/02 07:40:12;;;;;;;3.87;3.50;;;13.90;47.40;15.00;101626.00;;;;5026900;28;20199;-45
2022/03/02 07:42:38;;;;;;;3.60;3.30;;;13.90;47.40;15.00;101630.00;;;;5025924;28;20221;-44
2022/03/02 07:45:04;;;;;;;3.50;3.20;;;13.90;47.40;15.00;101628.00;;;;5026748;28;20179;-45
2022/03/02 07:47:30;;;;;;;3.47;3.17;;;13.90;47.40;15.00;101626.00;;;;5024918;28;20568;-44
2022/03/02 07:49:56;;;;;;;3.70;3.40;;;13.90;47.40;15.00;101612.00;;;;5026136;28;20217;-44
2022/03/02 07:52:28;;;;;;;3.60;3.30;;;13.90;47.40;15.00;101612.00;;;;5025915;28;20175;-43
2022/03/02 07:54:58;;;;;;;3.47;3.17;;;13.90;47.40;15.00;101608.00;;;;5027099;28;20178;-45
2022/03/02 07:57:23;;;;;;;3.30;3.10;;;13.80;47.30;15.00;101604.00;;;;5046991;28;20169;-44
2022/03/02 07:59:50;;;;;;;3.57;3.27;;;13.80;47.30;15.00;101599.00;;;;5049172;28;20195;-45
2022/03/02 08:02:16;;;;;;;3.13;2.93;;;13.80;47.30;15.00;101597.00;;;;5024737;28;20231;-43
2022/03/02 08:04:42;;;;;;;3.30;3.00;;;13.80;47.30;14.90;101604.00;;;;5024795;28;20252;-46
2022/03/02 08:07:07;;;;;;;3.57;3.27;;;13.80;47.30;14.90;101601.00;;;;5027948;28;20186;-43
2022/03/02 08:09:34;;;;;;;3.43;3.13;;;13.80;47.30;14.90;101605.00;;;;5028159;28;20207;-45
2022/03/02 08:12:01;;;;;;;3.40;3.10;;;13.80;47.30;14.90;101607.00;;;;5028674;28;20172;-45
2022/03/02 08:14:27;;;;;;;3.23;2.93;;;13.80;47.30;14.90;101603.00;;;;5025174;28;20579;-44
2022/03/02 08:16:53;;;;;;;3.33;3.03;;;13.80;47.30;14.90;101599.00;;;;5026242;28;20734;-46
2022/03/02 08:19:19;;;;;;;3.30;3.00;;;13.80;47.30;14.90;101601.00;;;;5025116;28;20209;-45
2022/03/02 08:21:50;;;;;;;3.70;3.17;;;13.80;47.30;14.90;101599.00;;;;5025528;28;20182;-44
2022/03/02 08:24:16;;;;;;;3.50;3.20;;;13.80;47.40;14.90;101594.00;;;;5024371;28;20229;-43
2022/03/02 08:26:42;;;;;;;4.40;3.13;;;13.80;47.50;14.90;101598.00;;;;5025993;28;20632;-44
2022/03/02 08:29:10;;;;;;;5.43;3.00;;;13.80;47.60;14.90;101599.00;;;;5023979;28;20175;-43
2022/03/02 08:31:39;;;;;;;3.30;3.00;;;13.70;47.60;14.70;101594.00;;;;5023621;28;20784;-43
2022/03/02 08:34:06;;;;;;;3.93;3.10;;;13.80;47.60;14.90;101593.00;;;;5025289;28;20554;-45
2022/03/02 08:36:33;;;;;;;3.23;2.97;;;13.80;47.60;14.90;101586.00;;;;5025603;28;20225;-44
2022/03/02 08:39:10;;;;;;;3.40;3.10;;;13.80;47.60;14.90;101586.00;;;;5024218;28;20731;-44
2022/03/02 08:41:37;;;;;;;3.40;3.10;;;13.80;47.60;14.90;101586.00;;;;5024228;28;20159;-44
2022/03/02 08:44:03;;;;;;;3.00;2.73;;;13.80;47.60;14.90;101577.00;;;;5024642;28;20202;-46
2022/03/02 08:46:28;;;;;;;3.60;3.00;;;13.80;47.60;14.90;101580.00;;;;5026828;28;20174;-45
2022/03/02 08:48:54;;;;;;;3.30;3.00;;;13.80;47.60;14.90;101574.00;;;;5027670;28;20179;-44
2022/03/02 08:51:21;;;;;;;3.90;3.10;;;13.80;47.60;14.80;101580.00;;;;5025703;28;20340;-47
2022/03/02 08:53:49;;;;;;;3.40;3.10;;;13.70;48.80;14.80;101577.00;;;;5024398;28;20217;-45
2022/03/02 08:56:14;;;;;;;3.47;3.17;;;13.80;48.00;14.80;101574.00;;;;5023976;28;20163;-43
2022/03/02 08:58:40;;;;;;;3.33;3.03;;;13.70;48.10;14.60;101578.00;;;;5022097;28;20187;-44
2022/03/02 09:01:06;;;;;;;4.80;3.33;;;13.70;48.30;14.80;101563.00;;;;5020242;28;20211;-44
2022/03/02 09:03:33;;;;;;;3.30;3.00;;;13.70;48.60;14.80;101567.00;;;;5003055;28;20756;-44
2022/03/02 09:05:59;;;;;;;6.43;3.40;;;13.60;48.70;14.80;101566.00;;;;5004024;28;20263;-44
2022/03/02 09:08:25;;;;;;;5.90;3.10;;;13.60;48.50;14.80;101570.00;;;;4970331;28;20182;-44
2022/03/02 09:10:51;;;;;;;4.20;3.33;;;13.60;48.30;14.80;101543.00;;;;5003831;28;20175;-44
2022/03/02 09:13:16;;;;;;;3.80;3.50;;;13.60;48.20;14.80;101564.00;;;;4974572;28;20230;-44
2022/03/02 09:15:42;;;;;;;4.90;3.17;;;13.60;48.30;14.70;101570.00;;;;5008796;28;20184;-45
2022/03/02 09:18:08;;;;;;;5.27;3.30;;;13.70;48.50;14.70;101558.00;;;;5009301;28;20180;-44
2022/03/02 09:20:34;;;;;;;4.73;3.27;;;13.70;48.10;14.70;101550.00;;;;5017387;28;20202;-44
2022/03/02 09:23:04;;;;;;;3.67;3.23;;;13.60;48.10;14.70;101554.00;;;;5033023;28;20191;-42
2022/03/02 09:25:30;;;;;;;5.17;3.20;;;13.60;48.20;14.70;101559.00;;;;5031570;28;20174;-41
2022/03/02 09:27:56;;;;;;;7.20;3.23;;;13.60;48.50;14.70;101565.00;;;;5031408;28;20170;-43
2022/03/02 09:30:22;;;;;;;3.43;3.07;;;13.60;48.50;14.70;101560.00;;;;5031302;28;20175;-44
2022/03/02 09:32:52;;;;;;;3.53;3.23;;;13.60;48.50;14.70;101542.00;;;;5031312;28;20198;-43
2022/03/02 09:35:19;;;;;;;4.20;3.40;;;13.60;48.40;14.70;101480.00;;;;5030223;28;20208;-43
2022/03/02 09:37:49;;;;;;;4.23;3.63;;;13.60;48.70;14.70;101544.00;;;;5031848;28;20224;-44
2022/03/02 09:40:28;;;;;;;5.63;3.70;;;13.60;48.50;14.60;101554.00;;;;5031711;28;20235;-45
2022/03/02 09:42:59;;;;;;;4.20;3.23;;;13.60;49.30;14.60;101552.00;;;;5031797;28;20198;-43
2022/03/02 09:45:27;;;;;;;5.63;3.40;;;13.60;49.00;14.60;101544.00;;;;5030638;28;20163;-46
2022/03/02 09:47:56;;;;;;;5.87;3.40;;;13.60;49.00;14.60;101539.00;;;;5031426;28;20167;-42
2022/03/02 09:50:23;;;;;;;5.33;3.60;;;13.60;48.80;14.60;101539.00;;;;5033938;28;20810;-42
2022/03/02 09:52:49;;;;;;;4.07;3.43;;;13.60;48.90;14.60;101533.00;;;;5030565;28;20237;-43
2022/03/02 09:55:21;;;;;;;5.83;3.47;;;13.60;48.80;14.60;101535.00;;;;5012637;28;20563;-43
2022/03/02 09:57:57;;;;;;;4.50;3.33;;;13.50;48.70;14.60;101535.00;;;;5030371;28;20191;-44
2022/03/02 10:00:25;;;;;;;3.60;3.30;;;13.50;48.80;14.60;101527.00;;;;5030718;28;20190;-44
2022/03/02 10:02:57;;;;;;;3.97;3.50;;;13.50;48.90;14.60;101541.00;;;;5030271;28;20190;-43
2022/03/02 10:05:28;;;;;;;3.90;3.43;;;13.60;49.00;14.60;101537.00;;;;5030062;28;20569;-44
2022/03/02 10:08:03;;;;;;;4.30;3.43;;;13.60;49.00;14.60;101542.00;;;;5030147;28;20181;-44
2022/03/02 10:10:33;;;;;;;3.87;3.30;;;13.60;49.10;14.60;101539.00;;;;5030532;28;20494;-43
2022/03/02 10:13:01;;;;;;;5.27;3.30;;;13.60;49.00;14.60;101547.00;;;;5030192;28;20211;-44
2022/03/02 10:15:27;;;;;;;4.23;3.40;;;13.60;49.10;14.60;101542.00;;;;5028324;28;20171;-44
2022/03/02 10:17:53;;;;;;;3.90;3.10;;;13.60;49.20;14.60;101544.00;;;;5030344;28;20182;-43
2022/03/02 10:20:24;;;;;;;6.03;3.40;;;13.60;49.10;14.50;101540.00;;;;5029863;28;20222;-42
2022/03/02 10:23:32;;;;;;;3.77;3.10;;;13.60;49.30;14.60;101543.00;;;;5030158;28;20260;-43
2022/03/02 10:26:23;;;;;;;3.37;2.80;;;13.60;49.30;14.60;101554.00;;;;5028439;28;20373;-43
2022/03/02 10:29:05;;;;;;;8.27;3.23;;;13.60;49.30;14.50;101541.00;;;;5030480;28;20163;-43
2022/03/02 10:32:09;;;;;;;5.00;3.30;;;13.60;49.30;14.50;101540.00;;;;5030860;28;20163;-44
2022/03/02 10:34:38;;;;;;;7.17;3.13;;;13.60;49.40;14.50;101534.00;;;;5030055;28;20199;-43
2022/03/02 10:37:19;;;;;;;4.97;3.30;;;13.60;49.50;14.50;101530.00;;;;5029975;28;20230;-44
2022/03/02 10:39:52;;;;;;;6.60;3.43;;;13.70;49.50;14.50;101540.00;;;;5029785;28;20537;-44
2022/03/02 10:42:23;;;;;;;6.13;3.60;;;13.70;49.50;14.50;101536.00;;;;5030042;28;20174;-42
2022/03/02 10:45:19;;;;;;;5.60;2.90;;;13.70;49.60;14.60;101541.00;;;;5029871;28;20159;-44
2022/03/02 10:48:01;;;;;;;5.60;3.20;;;13.70;49.60;14.50;101536.00;;;;5013224;28;20175;-44
2022/03/02 10:50:30;;;;;;;4.23;3.00;;;13.70;49.70;14.60;101535.00;;;;5029355;28;20178;-44
2022/03/02 10:52:56;;;;;;;3.37;2.93;;;13.70;50.30;14.60;101534.00;;;;5029197;28;20213;-43
2022/03/02 10:55:22;;;;;;;5.63;3.30;;;13.70;49.80;14.60;101531.00;;;;5028886;28;20663;-44
2022/03/02 10:57:49;;;;;;;4.13;3.10;;;13.70;49.80;14.60;101525.00;;;;5029061;28;20179;-45
2022/03/02 11:00:17;;;;;;;6.27;3.00;;;13.70;49.80;14.60;101522.00;;;;5029264;28;20218;-44
2022/03/02 11:02:46;;;;;;;4.70;3.03;;;13.70;49.90;14.60;101523.00;;;;5027929;28;20191;-44
2022/03/02 11:05:14;;;;;;;4.97;3.13;;;13.70;50.00;14.60;101534.00;;;;5029175;28;20194;-44